Terminal Aerodrome Forecast
Issued by NWS

Home | Current Version | Previous Version | Graphics & Text | Print | Product List | Glossary On
Versions: 1 2 3 4 5 6 7 8 9 10 11 12
000
FTUS42 KMHX 271700
TAFOAJ
TAF
KOAJ 271727Z 2718/2818 20003KT P6SM SCT250
     FM280500 00000KT P6SM BKN250
     FM281100 23004KT P6SM OVC100
     FM281300 21003KT P6SM OVC025
      AMD LTD TO CLD VIS AND WIND=

USA.gov is the U.S. government's official web portal to all federal, state and local government web resources and services.